sensor_id;sensor_type;location;lat;lon;timestamp;P1;durP1;ratioP1;P2;durP2;ratioP2
17947;SDS011;9099;47.958;11.366;2023-03-23T00:01:09;2.00;;;1.83;;
17947;SDS011;9099;47.958;11.366;2023-03-23T00:03:39;2.30;;;1.70;;
17947;SDS011;9099;47.958;11.366;2023-03-23T00:06:07;2.47;;;1.88;;
17947;SDS011;9099;47.958;11.366;2023-03-23T00:08:36;1.83;;;1.60;;
17947;SDS011;9099;47.958;11.366;2023-03-23T00:11:09;1.70;;;1.60;;
17947;SDS011;9099;47.958;11.366;2023-03-23T00:13:40;1.65;;;1.55;;
17947;SDS011;9099;47.958;11.366;2023-03-23T00:16:07;2.78;;;1.90;;
17947;SDS011;9099;47.958;11.366;2023-03-23T00:18:43;3.08;;;1.77;;
17947;SDS011;9099;47.958;11.366;2023-03-23T00:21:10;1.88;;;1.60;;
17947;SDS011;9099;47.958;11.366;2023-03-23T00:23:37;1.60;;;1.50;;
17947;SDS011;9099;47.958;11.366;2023-03-23T00:26:05;1.75;;;1.65;;
17947;SDS011;9099;47.958;11.366;2023-03-23T00:28:33;2.13;;;1.80;;
17947;SDS011;9099;47.958;11.366;2023-03-23T00:31:00;2.15;;;1.88;;
17947;SDS011;9099;47.958;11.366;2023-03-23T00:33:29;2.13;;;2.03;;
17947;SDS011;9099;47.958;11.366;2023-03-23T00:36:04;2.40;;;1.80;;
17947;SDS011;9099;47.958;11.366;2023-03-23T00:38:33;1.92;;;1.73;;
17947;SDS011;9099;47.958;11.366;2023-03-23T00:41:01;2.22;;;1.83;;
17947;SDS011;9099;47.958;11.366;2023-03-23T00:43:28;2.00;;;1.90;;
17947;SDS011;9099;47.958;11.366;2023-03-23T00:45:56;2.05;;;1.80;;
17947;SDS011;9099;47.958;11.366;2023-03-23T00:48:26;1.90;;;1.80;;
17947;SDS011;9099;47.958;11.366;2023-03-23T00:50:54;2.03;;;1.80;;
17947;SDS011;9099;47.958;11.366;2023-03-23T00:53:23;2.20;;;2.05;;
17947;SDS011;9099;47.958;11.366;2023-03-23T00:55:49;2.10;;;2.00;;
17947;SDS011;9099;47.958;11.366;2023-03-23T00:58:16;2.28;;;1.90;;
17947;SDS011;9099;47.958;11.366;2023-03-23T01:00:43;2.28;;;1.90;;
17947;SDS011;9099;47.958;11.366;2023-03-23T01:03:10;2.65;;;1.80;;
17947;SDS011;9099;47.958;11.366;2023-03-23T01:05:43;1.80;;;1.70;;
17947;SDS011;9099;47.958;11.366;2023-03-23T01:08:12;2.28;;;1.70;;
17947;SDS011;9099;47.958;11.366;2023-03-23T01:10:42;2.78;;;1.77;;
17947;SDS011;9099;47.958;11.366;2023-03-23T01:13:09;2.97;;;1.85;;
17947;SDS011;9099;47.958;11.366;2023-03-23T01:15:36;1.98;;;1.60;;
17947;SDS011;9099;47.958;11.366;2023-03-23T01:18:03;2.55;;;1.60;;
17947;SDS011;9099;47.958;11.366;2023-03-23T01:20:30;1.77;;;1.67;;
17947;SDS011;9099;47.958;11.366;2023-03-23T01:22:58;1.63;;;1.52;;
17947;SDS011;9099;47.958;11.366;2023-03-23T01:25:26;1.65;;;1.55;;
17947;SDS011;9099;47.958;11.366;2023-03-23T01:27:55;1.63;;;1.52;;
17947;SDS011;9099;47.958;11.366;2023-03-23T01:30:23;1.80;;;1.70;;
17947;SDS011;9099;47.958;11.366;2023-03-23T01:32:51;1.83;;;1.63;;
17947;SDS011;9099;47.958;11.366;2023-03-23T01:35:18;1.85;;;1.75;;
17947;SDS011;9099;47.958;11.366;2023-03-23T01:37:45;2.22;;;1.38;;
17947;SDS011;9099;47.958;11.366;2023-03-23T01:40:13;1.92;;;1.70;;
17947;SDS011;9099;47.958;11.366;2023-03-23T01:42:40;1.90;;;1.60;;
17947;SDS011;9099;47.958;11.366;2023-03-23T01:48:07;1.77;;;1.67;;
17947;SDS011;9099;47.958;11.366;2023-03-23T01:50:41;1.60;;;1.50;;
17947;SDS011;9099;47.958;11.366;2023-03-23T01:53:12;1.50;;;1.40;;
17947;SDS011;9099;47.958;11.366;2023-03-23T01:55:40;1.95;;;1.52;;
17947;SDS011;9099;47.958;11.366;2023-03-23T01:58:13;2.22;;;1.58;;
17947;SDS011;9099;47.958;11.366;2023-03-23T02:00:42;1.73;;;1.60;;
17947;SDS011;9099;47.958;11.366;2023-03-23T02:03:09;1.77;;;1.67;;
17947;SDS011;9099;47.958;11.366;2023-03-23T02:05:41;1.70;;;1.60;;
17947;SDS011;9099;47.958;11.366;2023-03-23T02:08:09;3.17;;;1.88;;
17947;SDS011;9099;47.958;11.366;2023-03-23T02:10:38;1.70;;;1.60;;
17947;SDS011;9099;47.958;11.366;2023-03-23T02:13:06;1.80;;;1.70;;
17947;SDS011;9099;47.958;11.366;2023-03-23T02:15:37;1.75;;;1.65;;
17947;SDS011;9099;47.958;11.366;2023-03-23T02:18:15;1.52;;;1.42;;
17947;SDS011;9099;47.958;11.366;2023-03-23T02:21:13;1.80;;;1.70;;
17947;SDS011;9099;47.958;11.366;2023-03-23T02:23:57;2.80;;;1.60;;
17947;SDS011;9099;47.958;11.366;2023-03-23T02:26:42;2.15;;;1.75;;
17947;SDS011;9099;47.958;11.366;2023-03-23T02:32:12;1.52;;;1.42;;
17947;SDS011;9099;47.958;11.366;2023-03-23T02:34:56;2.38;;;1.60;;
17947;SDS011;9099;47.958;11.366;2023-03-23T02:37:27;1.40;;;1.30;;
17947;SDS011;9099;47.958;11.366;2023-03-23T02:40:00;1.70;;;1.60;;
17947;SDS011;9099;47.958;11.366;2023-03-23T02:42:33;1.75;;;1.45;;
17947;SDS011;9099;47.958;11.366;2023-03-23T02:45:05;2.13;;;1.40;;
17947;SDS011;9099;47.958;11.366;2023-03-23T02:47:34;1.88;;;1.40;;
17947;SDS011;9099;47.958;11.366;2023-03-23T02:50:05;1.52;;;1.25;;
17947;SDS011;9099;47.958;11.366;2023-03-23T02:52:36;1.60;;;1.50;;
17947;SDS011;9099;47.958;11.366;2023-03-23T02:55:05;2.45;;;1.70;;
17947;SDS011;9099;47.958;11.366;2023-03-23T02:57:36;1.30;;;1.27;;
17947;SDS011;9099;47.958;11.366;2023-03-23T03:00:04;1.45;;;1.40;;
17947;SDS011;9099;47.958;11.366;2023-03-23T03:02:35;1.70;;;1.60;;
17947;SDS011;9099;47.958;11.366;2023-03-23T03:05:08;1.45;;;1.35;;
17947;SDS011;9099;47.958;11.366;2023-03-23T03:07:51;1.60;;;1.50;;
17947;SDS011;9099;47.958;11.366;2023-03-23T03:10:30;1.75;;;1.65;;
17947;SDS011;9099;47.958;11.366;2023-03-23T03:13:02;1.95;;;1.80;;
17947;SDS011;9099;47.958;11.366;2023-03-23T03:15:34;1.88;;;1.77;;
17947;SDS011;9099;47.958;11.366;2023-03-23T03:18:07;1.83;;;1.73;;
17947;SDS011;9099;47.958;11.366;2023-03-23T03:20:42;1.88;;;1.45;;
17947;SDS011;9099;47.958;11.366;2023-03-23T03:23:12;1.52;;;1.42;;
17947;SDS011;9099;47.958;11.366;2023-03-23T03:25:40;1.50;;;1.40;;
17947;SDS011;9099;47.958;11.366;2023-03-23T03:28:12;1.65;;;1.55;;
17947;SDS011;9099;47.958;11.366;2023-03-23T03:30:41;1.92;;;1.60;;
17947;SDS011;9099;47.958;11.366;2023-03-23T03:33:11;2.05;;;1.70;;
17947;SDS011;9099;47.958;11.366;2023-03-23T03:35:40;1.90;;;1.80;;
17947;SDS011;9099;47.958;11.366;2023-03-23T03:38:10;1.60;;;1.50;;
17947;SDS011;9099;47.958;11.366;2023-03-23T03:40:37;1.75;;;1.63;;
17947;SDS011;9099;47.958;11.366;2023-03-23T03:43:04;2.28;;;1.90;;
17947;SDS011;9099;47.958;11.366;2023-03-23T03:45:32;1.67;;;1.58;;
17947;SDS011;9099;47.958;11.366;2023-03-23T03:47:59;1.65;;;1.55;;
17947;SDS011;9099;47.958;11.366;2023-03-23T03:50:26;2.25;;;1.80;;
17947;SDS011;9099;47.958;11.366;2023-03-23T03:52:55;1.83;;;1.73;;
17947;SDS011;9099;47.958;11.366;2023-03-23T03:55:22;1.80;;;1.67;;
17947;SDS011;9099;47.958;11.366;2023-03-23T03:57:50;1.67;;;1.58;;
17947;SDS011;9099;47.958;11.366;2023-03-23T04:00:17;1.40;;;1.30;;
17947;SDS011;9099;47.958;11.366;2023-03-23T04:02:45;1.48;;;1.38;;
17947;SDS011;9099;47.958;11.366;2023-03-23T04:05:16;1.75;;;1.65;;
17947;SDS011;9099;47.958;11.366;2023-03-23T04:07:45;1.90;;;1.80;;
17947;SDS011;9099;47.958;11.366;2023-03-23T04:10:18;2.90;;;1.50;;
17947;SDS011;9099;47.958;11.366;2023-03-23T04:12:47;2.97;;;1.63;;
17947;SDS011;9099;47.958;11.366;2023-03-23T04:15:14;1.42;;;1.23;;
17947;SDS011;9099;47.958;11.366;2023-03-23T04:17:41;1.92;;;1.40;;
17947;SDS011;9099;47.958;11.366;2023-03-23T04:20:08;1.90;;;1.55;;
17947;SDS011;9099;47.958;11.366;2023-03-23T04:22:41;1.65;;;1.55;;
17947;SDS011;9099;47.958;11.366;2023-03-23T04:25:09;1.73;;;1.58;;
17947;SDS011;9099;47.958;11.366;2023-03-23T04:27:39;1.70;;;1.60;;
17947;SDS011;9099;47.958;11.366;2023-03-23T04:30:08;2.10;;;1.70;;
17947;SDS011;9099;47.958;11.366;2023-03-23T04:32:36;2.35;;;1.52;;
17947;SDS011;9099;47.958;11.366;2023-03-23T04:35:07;1.90;;;1.80;;
17947;SDS011;9099;47.958;11.366;2023-03-23T04:37:36;2.40;;;2.03;;
17947;SDS011;9099;47.958;11.366;2023-03-23T04:40:04;2.00;;;1.90;;
17947;SDS011;9099;47.958;11.366;2023-03-23T04:42:36;1.80;;;1.70;;
17947;SDS011;9099;47.958;11.366;2023-03-23T04:45:06;1.88;;;1.77;;
17947;SDS011;9099;47.958;11.366;2023-03-23T04:47:35;2.17;;;1.95;;
17947;SDS011;9099;47.958;11.366;2023-03-23T04:50:07;2.55;;;1.60;;
17947;SDS011;9099;47.958;11.366;2023-03-23T04:52:37;2.03;;;1.83;;
17947;SDS011;9099;47.958;11.366;2023-03-23T04:55:10;3.65;;;1.58;;
17947;SDS011;9099;47.958;11.366;2023-03-23T04:57:38;2.30;;;1.73;;
17947;SDS011;9099;47.958;11.366;2023-03-23T05:00:08;1.80;;;1.65;;
17947;SDS011;9099;47.958;11.366;2023-03-23T05:02:39;2.30;;;1.80;;
17947;SDS011;9099;47.958;11.366;2023-03-23T05:05:07;1.80;;;1.70;;
17947;SDS011;9099;47.958;11.366;2023-03-23T05:07:35;1.60;;;1.50;;
17947;SDS011;9099;47.958;11.366;2023-03-23T05:10:03;1.33;;;1.30;;
17947;SDS011;9099;47.958;11.366;2023-03-23T05:12:32;1.88;;;1.50;;
17947;SDS011;9099;47.958;11.366;2023-03-23T05:15:00;1.80;;;1.70;;
17947;SDS011;9099;47.958;11.366;2023-03-23T05:17:28;1.95;;;1.70;;
17947;SDS011;9099;47.958;11.366;2023-03-23T05:19:57;3.40;;;1.90;;
17947;SDS011;9099;47.958;11.366;2023-03-23T05:22:26;1.50;;;1.40;;
17947;SDS011;9099;47.958;11.366;2023-03-23T05:24:53;2.15;;;1.60;;
17947;SDS011;9099;47.958;11.366;2023-03-23T05:27:21;1.77;;;1.67;;
17947;SDS011;9099;47.958;11.366;2023-03-23T05:29:48;1.50;;;1.40;;
17947;SDS011;9099;47.958;11.366;2023-03-23T05:32:15;1.45;;;1.35;;
17947;SDS011;9099;47.958;11.366;2023-03-23T05:34:45;1.60;;;1.45;;
17947;SDS011;9099;47.958;11.366;2023-03-23T05:37:12;1.58;;;1.48;;
17947;SDS011;9099;47.958;11.366;2023-03-23T05:39:39;2.70;;;1.42;;
17947;SDS011;9099;47.958;11.366;2023-03-23T05:42:06;1.85;;;1.60;;
17947;SDS011;9099;47.958;11.366;2023-03-23T05:44:33;2.25;;;1.60;;
17947;SDS011;9099;47.958;11.366;2023-03-23T05:47:00;1.25;;;1.25;;
17947;SDS011;9099;47.958;11.366;2023-03-23T05:49:28;2.67;;;1.40;;
17947;SDS011;9099;47.958;11.366;2023-03-23T05:51:56;1.85;;;1.50;;
17947;SDS011;9099;47.958;11.366;2023-03-23T05:54:23;3.67;;;1.50;;
17947;SDS011;9099;47.958;11.366;2023-03-23T05:56:50;3.05;;;1.40;;
17947;SDS011;9099;47.958;11.366;2023-03-23T05:59:17;2.17;;;1.50;;
17947;SDS011;9099;47.958;11.366;2023-03-23T06:01:44;1.52;;;1.40;;
17947;SDS011;9099;47.958;11.366;2023-03-23T06:04:11;3.75;;;1.50;;
17947;SDS011;9099;47.958;11.366;2023-03-23T06:06:38;2.40;;;1.60;;
17947;SDS011;9099;47.958;11.366;2023-03-23T06:09:07;1.35;;;1.25;;
17947;SDS011;9099;47.958;11.366;2023-03-23T06:11:34;1.85;;;1.45;;
17947;SDS011;9099;47.958;11.366;2023-03-23T06:14:01;1.65;;;1.55;;
17947;SDS011;9099;47.958;11.366;2023-03-23T06:16:29;1.85;;;1.60;;
17947;SDS011;9099;47.958;11.366;2023-03-23T06:18:56;1.70;;;1.60;;
17947;SDS011;9099;47.958;11.366;2023-03-23T06:21:25;2.13;;;1.60;;
17947;SDS011;9099;47.958;11.366;2023-03-23T06:23:53;1.45;;;1.38;;
17947;SDS011;9099;47.958;11.366;2023-03-23T06:26:22;2.53;;;1.45;;
17947;SDS011;9099;47.958;11.366;2023-03-23T06:28:53;3.42;;;1.73;;
17947;SDS011;9099;47.958;11.366;2023-03-23T06:31:20;1.98;;;1.38;;
17947;SDS011;9099;47.958;11.366;2023-03-23T06:33:47;1.95;;;1.70;;
17947;SDS011;9099;47.958;11.366;2023-03-23T06:36:14;3.72;;;1.50;;
17947;SDS011;9099;47.958;11.366;2023-03-23T06:38:41;3.13;;;1.40;;
17947;SDS011;9099;47.958;11.366;2023-03-23T06:41:08;3.28;;;2.10;;
17947;SDS011;9099;47.958;11.366;2023-03-23T06:43:36;4.55;;;2.00;;
17947;SDS011;9099;47.958;11.366;2023-03-23T06:46:04;5.18;;;1.80;;
17947;SDS011;9099;47.958;11.366;2023-03-23T06:48:31;2.67;;;1.75;;
17947;SDS011;9099;47.958;11.366;2023-03-23T06:50:59;2.65;;;1.80;;
17947;SDS011;9099;47.958;11.366;2023-03-23T06:53:26;1.70;;;1.50;;
17947;SDS011;9099;47.958;11.366;2023-03-23T06:55:52;3.15;;;1.80;;
17947;SDS011;9099;47.958;11.366;2023-03-23T06:58:19;1.70;;;1.60;;
17947;SDS011;9099;47.958;11.366;2023-03-23T07:00:48;4.70;;;1.67;;
17947;SDS011;9099;47.958;11.366;2023-03-23T07:03:20;1.60;;;1.50;;
17947;SDS011;9099;47.958;11.366;2023-03-23T07:05:47;1.75;;;1.50;;
17947;SDS011;9099;47.958;11.366;2023-03-23T07:08:14;1.50;;;1.40;;
17947;SDS011;9099;47.958;11.366;2023-03-23T07:10:40;1.92;;;1.67;;
17947;SDS011;9099;47.958;11.366;2023-03-23T07:13:08;3.17;;;1.73;;
17947;SDS011;9099;47.958;11.366;2023-03-23T07:15:35;4.95;;;1.85;;
17947;SDS011;9099;47.958;11.366;2023-03-23T07:18:04;2.22;;;1.83;;
17947;SDS011;9099;47.958;11.366;2023-03-23T07:20:30;2.28;;;1.77;;
17947;SDS011;9099;47.958;11.366;2023-03-23T07:22:57;1.90;;;1.80;;
17947;SDS011;9099;47.958;11.366;2023-03-23T07:25:26;1.95;;;1.85;;
17947;SDS011;9099;47.958;11.366;2023-03-23T07:27:53;1.95;;;1.85;;
17947;SDS011;9099;47.958;11.366;2023-03-23T07:30:20;1.70;;;1.60;;
17947;SDS011;9099;47.958;11.366;2023-03-23T07:32:47;3.13;;;2.05;;
17947;SDS011;9099;47.958;11.366;2023-03-23T07:35:15;1.75;;;1.65;;
17947;SDS011;9099;47.958;11.366;2023-03-23T07:37:42;2.22;;;1.73;;
17947;SDS011;9099;47.958;11.366;2023-03-23T07:40:10;1.98;;;1.80;;
17947;SDS011;9099;47.958;11.366;2023-03-23T07:42:41;1.83;;;1.73;;
17947;SDS011;9099;47.958;11.366;2023-03-23T07:45:09;2.13;;;1.67;;
17947;SDS011;9099;47.958;11.366;2023-03-23T07:47:36;2.85;;;1.80;;
17947;SDS011;9099;47.958;11.366;2023-03-23T07:50:04;3.80;;;1.92;;
17947;SDS011;9099;47.958;11.366;2023-03-23T07:52:33;5.88;;;1.92;;
17947;SDS011;9099;47.958;11.366;2023-03-23T07:55:00;4.50;;;2.13;;
17947;SDS011;9099;47.958;11.366;2023-03-23T07:57:28;5.28;;;1.90;;
17947;SDS011;9099;47.958;11.366;2023-03-23T07:59:55;2.30;;;2.10;;
17947;SDS011;9099;47.958;11.366;2023-03-23T08:02:23;4.10;;;2.10;;
17947;SDS011;9099;47.958;11.366;2023-03-23T08:04:50;2.38;;;2.17;;
17947;SDS011;9099;47.958;11.366;2023-03-23T08:07:17;4.60;;;2.60;;
17947;SDS011;9099;47.958;11.366;2023-03-23T08:09:45;4.78;;;2.20;;
17947;SDS011;9099;47.958;11.366;2023-03-23T08:12:12;4.05;;;2.10;;
17947;SDS011;9099;47.958;11.366;2023-03-23T08:14:39;2.83;;;2.00;;
17947;SDS011;9099;47.958;11.366;2023-03-23T08:17:06;3.58;;;2.38;;
17947;SDS011;9099;47.958;11.366;2023-03-23T08:19:33;2.45;;;2.20;;
17947;SDS011;9099;47.958;11.366;2023-03-23T08:22:02;1.80;;;1.70;;
17947;SDS011;9099;47.958;11.366;2023-03-23T08:24:29;2.13;;;2.00;;
17947;SDS011;9099;47.958;11.366;2023-03-23T08:26:57;2.05;;;1.83;;
17947;SDS011;9099;47.958;11.366;2023-03-23T08:29:24;1.80;;;1.70;;
17947;SDS011;9099;47.958;11.366;2023-03-23T08:31:51;3.58;;;1.75;;
17947;SDS011;9099;47.958;11.366;2023-03-23T08:34:18;2.97;;;1.88;;
17947;SDS011;9099;47.958;11.366;2023-03-23T08:36:45;3.47;;;2.00;;
17947;SDS011;9099;47.958;11.366;2023-03-23T08:39:12;2.45;;;2.25;;
17947;SDS011;9099;47.958;11.366;2023-03-23T08:41:39;2.47;;;2.00;;
17947;SDS011;9099;47.958;11.366;2023-03-23T08:44:08;1.95;;;1.85;;
17947;SDS011;9099;47.958;11.366;2023-03-23T08:46:34;2.42;;;2.22;;
17947;SDS011;9099;47.958;11.366;2023-03-23T08:49:01;2.80;;;2.60;;
17947;SDS011;9099;47.958;11.366;2023-03-23T08:51:28;2.83;;;2.63;;
17947;SDS011;9099;47.958;11.366;2023-03-23T08:53:55;2.97;;;2.63;;
17947;SDS011;9099;47.958;11.366;2023-03-23T08:56:22;4.07;;;3.40;;
17947;SDS011;9099;47.958;11.366;2023-03-23T08:58:49;3.65;;;3.35;;
17947;SDS011;9099;47.958;11.366;2023-03-23T09:01:17;3.08;;;2.88;;
17947;SDS011;9099;47.958;11.366;2023-03-23T09:03:44;3.50;;;3.30;;
17947;SDS011;9099;47.958;11.366;2023-03-23T09:06:11;3.13;;;2.65;;
17947;SDS011;9099;47.958;11.366;2023-03-23T09:08:38;3.10;;;2.90;;
17947;SDS011;9099;47.958;11.366;2023-03-23T09:11:06;2.85;;;2.65;;
17947;SDS011;9099;47.958;11.366;2023-03-23T09:13:34;3.78;;;2.60;;
17947;SDS011;9099;47.958;11.366;2023-03-23T09:16:02;2.50;;;2.30;;
17947;SDS011;9099;47.958;11.366;2023-03-23T09:18:32;5.65;;;3.70;;
17947;SDS011;9099;47.958;11.366;2023-03-23T09:21:00;3.88;;;3.58;;
17947;SDS011;9099;47.958;11.366;2023-03-23T09:23:28;4.15;;;3.75;;
17947;SDS011;9099;47.958;11.366;2023-03-23T09:25:55;2.90;;;2.63;;
17947;SDS011;9099;47.958;11.366;2023-03-23T09:28:22;4.35;;;3.20;;
17947;SDS011;9099;47.958;11.366;2023-03-23T09:30:49;3.60;;;3.30;;
17947;SDS011;9099;47.958;11.366;2023-03-23T09:33:16;3.70;;;3.35;;
17947;SDS011;9099;47.958;11.366;2023-03-23T09:35:44;4.28;;;3.88;;
17947;SDS011;9099;47.958;11.366;2023-03-23T09:38:11;3.88;;;3.60;;
17947;SDS011;9099;47.958;11.366;2023-03-23T09:40:41;5.13;;;3.83;;
17947;SDS011;9099;47.958;11.366;2023-03-23T09:43:19;4.78;;;4.38;;
17947;SDS011;9099;47.958;11.366;2023-03-23T09:46:01;4.47;;;4.07;;
17947;SDS011;9099;47.958;11.366;2023-03-23T09:48:43;5.28;;;4.47;;
17947;SDS011;9099;47.958;11.366;2023-03-23T09:51:18;4.78;;;4.47;;
17947;SDS011;9099;47.958;11.366;2023-03-23T09:53:54;5.60;;;5.20;;
17947;SDS011;9099;47.958;11.366;2023-03-23T09:56:24;5.10;;;4.70;;
17947;SDS011;9099;47.958;11.366;2023-03-23T09:58:55;4.38;;;4.07;;
17947;SDS011;9099;47.958;11.366;2023-03-23T10:01:26;5.20;;;4.50;;
17947;SDS011;9099;47.958;11.366;2023-03-23T10:03:59;4.75;;;4.45;;
17947;SDS011;9099;47.958;11.366;2023-03-23T10:06:31;5.97;;;4.55;;
17947;SDS011;9099;47.958;11.366;2023-03-23T10:08:59;4.00;;;3.75;;
17947;SDS011;9099;47.958;11.366;2023-03-23T10:11:32;4.80;;;4.40;;
17947;SDS011;9099;47.958;11.366;2023-03-23T10:14:17;5.07;;;4.57;;
17947;SDS011;9099;47.958;11.366;2023-03-23T10:16:56;4.65;;;4.28;;
17947;SDS011;9099;47.958;11.366;2023-03-23T10:19:29;8.77;;;7.97;;
17947;SDS011;9099;47.958;11.366;2023-03-23T10:22:03;5.97;;;5.47;;
17947;SDS011;9099;47.958;11.366;2023-03-23T10:24:35;5.40;;;5.00;;
17947;SDS011;9099;47.958;11.366;2023-03-23T10:27:13;7.10;;;4.80;;
17947;SDS011;9099;47.958;11.366;2023-03-23T10:29:47;6.03;;;5.53;;
17947;SDS011;9099;47.958;11.366;2023-03-23T10:32:20;5.80;;;5.30;;
17947;SDS011;9099;47.958;11.366;2023-03-23T10:35:05;4.22;;;3.92;;
17947;SDS011;9099;47.958;11.366;2023-03-23T10:37:38;5.30;;;4.90;;
17947;SDS011;9099;47.958;11.366;2023-03-23T10:40:12;5.20;;;4.80;;
17947;SDS011;9099;47.958;11.366;2023-03-23T10:42:42;6.10;;;4.35;;
17947;SDS011;9099;47.958;11.366;2023-03-23T10:45:12;4.50;;;4.10;;
17947;SDS011;9099;47.958;11.366;2023-03-23T10:47:44;4.32;;;4.00;;
17947;SDS011;9099;47.958;11.366;2023-03-23T10:50:16;4.80;;;4.40;;
17947;SDS011;9099;47.958;11.366;2023-03-23T10:52:49;3.88;;;3.67;;
17947;SDS011;9099;47.958;11.366;2023-03-23T10:55:19;3.80;;;3.50;;
17947;SDS011;9099;47.958;11.366;2023-03-23T10:57:58;4.05;;;3.75;;
17947;SDS011;9099;47.958;11.366;2023-03-23T11:00:27;3.72;;;3.42;;
17947;SDS011;9099;47.958;11.366;2023-03-23T11:02:59;4.28;;;3.97;;
17947;SDS011;9099;47.958;11.366;2023-03-23T11:05:32;4.20;;;3.80;;
17947;SDS011;9099;47.958;11.366;2023-03-23T11:08:03;4.05;;;3.75;;
17947;SDS011;9099;47.958;11.366;2023-03-23T11:10:39;4.35;;;3.75;;
17947;SDS011;9099;47.958;11.366;2023-03-23T11:13:10;3.65;;;3.35;;
17947;SDS011;9099;47.958;11.366;2023-03-23T11:15:40;3.85;;;3.25;;
17947;SDS011;9099;47.958;11.366;2023-03-23T11:18:10;3.90;;;3.45;;
17947;SDS011;9099;47.958;11.366;2023-03-23T11:20:39;3.95;;;3.65;;
17947;SDS011;9099;47.958;11.366;2023-03-23T11:23:09;4.20;;;3.85;;
17947;SDS011;9099;47.958;11.366;2023-03-23T11:25:52;4.00;;;3.70;;
17947;SDS011;9099;47.958;11.366;2023-03-23T11:28:29;4.07;;;3.67;;
17947;SDS011;9099;47.958;11.366;2023-03-23T11:30:59;4.15;;;3.75;;
17947;SDS011;9099;47.958;11.366;2023-03-23T11:33:30;6.45;;;3.22;;
17947;SDS011;9099;47.958;11.366;2023-03-23T11:36:04;3.80;;;3.50;;
17947;SDS011;9099;47.958;11.366;2023-03-23T11:38:34;3.83;;;3.30;;
17947;SDS011;9099;47.958;11.366;2023-03-23T11:41:08;2.90;;;2.70;;
17947;SDS011;9099;47.958;11.366;2023-03-23T11:43:39;4.35;;;3.67;;
17947;SDS011;9099;47.958;11.366;2023-03-23T11:46:09;4.35;;;4.00;;
17947;SDS011;9099;47.958;11.366;2023-03-23T11:48:44;3.55;;;3.25;;
17947;SDS011;9099;47.958;11.366;2023-03-23T11:51:19;4.28;;;3.88;;
17947;SDS011;9099;47.958;11.366;2023-03-23T11:53:54;3.60;;;3.30;;
17947;SDS011;9099;47.958;11.366;2023-03-23T11:56:25;3.60;;;3.30;;
17947;SDS011;9099;47.958;11.366;2023-03-23T11:58:56;3.47;;;2.90;;
17947;SDS011;9099;47.958;11.366;2023-03-23T12:01:29;3.38;;;3.08;;
17947;SDS011;9099;47.958;11.366;2023-03-23T12:07:03;3.92;;;3.63;;
17947;SDS011;9099;47.958;11.366;2023-03-23T12:09:41;3.22;;;3.03;;
17947;SDS011;9099;47.958;11.366;2023-03-23T12:12:20;3.42;;;3.08;;
17947;SDS011;9099;47.958;11.366;2023-03-23T12:14:53;3.78;;;3.47;;
17947;SDS011;9099;47.958;11.366;2023-03-23T12:17:31;3.78;;;2.90;;
17947;SDS011;9099;47.958;11.366;2023-03-23T12:20:13;3.30;;;3.00;;
17947;SDS011;9099;47.958;11.366;2023-03-23T12:22:53;3.17;;;2.97;;
17947;SDS011;9099;47.958;11.366;2023-03-23T12:25:47;2.78;;;2.58;;
17947;SDS011;9099;47.958;11.366;2023-03-23T12:28:33;3.22;;;3.03;;
17947;SDS011;9099;47.958;11.366;2023-03-23T12:31:10;3.20;;;3.00;;
17947;SDS011;9099;47.958;11.366;2023-03-23T12:33:48;3.70;;;2.90;;
17947;SDS011;9099;47.958;11.366;2023-03-23T12:36:24;3.08;;;2.88;;
17947;SDS011;9099;47.958;11.366;2023-03-23T12:39:02;3.08;;;2.78;;
17947;SDS011;9099;47.958;11.366;2023-03-23T12:41:47;2.75;;;2.40;;
17947;SDS011;9099;47.958;11.366;2023-03-23T12:44:20;2.17;;;2.08;;
17947;SDS011;9099;47.958;11.366;2023-03-23T12:47:01;2.30;;;2.10;;
17947;SDS011;9099;47.958;11.366;2023-03-23T12:49:49;3.17;;;2.60;;
17947;SDS011;9099;47.958;11.366;2023-03-23T12:52:21;2.95;;;2.55;;
17947;SDS011;9099;47.958;11.366;2023-03-23T12:54:54;2.03;;;1.90;;
17947;SDS011;9099;47.958;11.366;2023-03-23T12:57:29;2.70;;;2.00;;
17947;SDS011;9099;47.958;11.366;2023-03-23T13:00:02;2.03;;;1.92;;
17947;SDS011;9099;47.958;11.366;2023-03-23T13:02:37;2.50;;;1.90;;
17947;SDS011;9099;47.958;11.366;2023-03-23T13:05:09;2.10;;;2.00;;
17947;SDS011;9099;47.958;11.366;2023-03-23T13:07:43;2.40;;;2.20;;
17947;SDS011;9099;47.958;11.366;2023-03-23T13:10:15;2.10;;;2.00;;
17947;SDS011;9099;47.958;11.366;2023-03-23T13:12:48;1.65;;;1.55;;
17947;SDS011;9099;47.958;11.366;2023-03-23T13:15:22;1.70;;;1.60;;
17947;SDS011;9099;47.958;11.366;2023-03-23T13:17:58;2.45;;;1.70;;
17947;SDS011;9099;47.958;11.366;2023-03-23T13:20:37;2.10;;;1.35;;
17947;SDS011;9099;47.958;11.366;2023-03-23T13:23:20;1.38;;;1.27;;
17947;SDS011;9099;47.958;11.366;2023-03-23T13:25:51;1.40;;;1.30;;
17947;SDS011;9099;47.958;11.366;2023-03-23T13:28:24;1.45;;;1.35;;
17947;SDS011;9099;47.958;11.366;2023-03-23T13:30:56;1.23;;;1.13;;
17947;SDS011;9099;47.958;11.366;2023-03-23T13:33:25;1.50;;;1.40;;
17947;SDS011;9099;47.958;11.366;2023-03-23T13:35:54;1.40;;;1.30;;
17947;SDS011;9099;47.958;11.366;2023-03-23T13:38:23;1.98;;;1.45;;
17947;SDS011;9099;47.958;11.366;2023-03-23T13:40:51;1.25;;;1.15;;
17947;SDS011;9099;47.958;11.366;2023-03-23T13:43:28;1.05;;;1.05;;
17947;SDS011;9099;47.958;11.366;2023-03-23T13:46:06;2.00;;;1.02;;
17947;SDS011;9099;47.958;11.366;2023-03-23T13:48:40;1.45;;;1.17;;
17947;SDS011;9099;47.958;11.366;2023-03-23T13:51:23;1.42;;;1.33;;
17947;SDS011;9099;47.958;11.366;2023-03-23T13:54:03;1.50;;;1.20;;
17947;SDS011;9099;47.958;11.366;2023-03-23T13:56:41;1.92;;;1.20;;
17947;SDS011;9099;47.958;11.366;2023-03-23T13:59:15;1.30;;;1.20;;
17947;SDS011;9099;47.958;11.366;2023-03-23T14:01:54;1.15;;;1.05;;
17947;SDS011;9099;47.958;11.366;2023-03-23T14:04:22;1.40;;;1.30;;
17947;SDS011;9099;47.958;11.366;2023-03-23T14:07:07;1.27;;;1.17;;
17947;SDS011;9099;47.958;11.366;2023-03-23T14:09:37;1.30;;;1.20;;
17947;SDS011;9099;47.958;11.366;2023-03-23T14:12:14;1.77;;;1.25;;
17947;SDS011;9099;47.958;11.366;2023-03-23T14:14:45;2.45;;;1.30;;
17947;SDS011;9099;47.958;11.366;2023-03-23T14:17:15;3.85;;;1.40;;
17947;SDS011;9099;47.958;11.366;2023-03-23T14:19:46;2.08;;;1.35;;
17947;SDS011;9099;47.958;11.366;2023-03-23T14:22:17;1.30;;;1.30;;
17947;SDS011;9099;47.958;11.366;2023-03-23T14:24:45;2.45;;;1.50;;
17947;SDS011;9099;47.958;11.366;2023-03-23T14:27:12;1.55;;;1.45;;
17947;SDS011;9099;47.958;11.366;2023-03-23T14:29:41;4.70;;;1.70;;
17947;SDS011;9099;47.958;11.366;2023-03-23T14:32:10;2.85;;;1.88;;
17947;SDS011;9099;47.958;11.366;2023-03-23T14:34:40;2.47;;;1.40;;
17947;SDS011;9099;47.958;11.366;2023-03-23T14:37:09;1.80;;;1.70;;
17947;SDS011;9099;47.958;11.366;2023-03-23T14:39:38;2.22;;;1.50;;
17947;SDS011;9099;47.958;11.366;2023-03-23T14:42:07;2.15;;;1.60;;
17947;SDS011;9099;47.958;11.366;2023-03-23T14:44:39;1.85;;;1.40;;
17947;SDS011;9099;47.958;11.366;2023-03-23T14:47:12;1.42;;;1.35;;
17947;SDS011;9099;47.958;11.366;2023-03-23T14:49:43;1.75;;;1.65;;
17947;SDS011;9099;47.958;11.366;2023-03-23T14:52:10;1.38;;;1.30;;
17947;SDS011;9099;47.958;11.366;2023-03-23T14:54:38;1.52;;;1.42;;
17947;SDS011;9099;47.958;11.366;2023-03-23T14:57:10;1.88;;;1.60;;
17947;SDS011;9099;47.958;11.366;2023-03-23T14:59:39;1.60;;;1.48;;
17947;SDS011;9099;47.958;11.366;2023-03-23T15:02:08;1.58;;;1.48;;
17947;SDS011;9099;47.958;11.366;2023-03-23T15:04:41;1.85;;;1.40;;
17947;SDS011;9099;47.958;11.366;2023-03-23T15:07:11;1.90;;;1.80;;
17947;SDS011;9099;47.958;11.366;2023-03-23T15:09:42;1.65;;;1.55;;
17947;SDS011;9099;47.958;11.366;2023-03-23T15:12:18;3.10;;;1.52;;
17947;SDS011;9099;47.958;11.366;2023-03-23T15:14:48;2.03;;;1.83;;
17947;SDS011;9099;47.958;11.366;2023-03-23T15:17:19;4.07;;;3.75;;